createdAt,value
2022-12-06T00:01:51.753Z,2.05
2022-12-06T00:04:19.936Z,2.35
2022-12-06T00:06:51.951Z,2.38
2022-12-06T00:09:24.497Z,2.55
2022-12-06T00:11:52.956Z,2.78
2022-12-06T00:14:22.375Z,1.60
2022-12-06T00:16:50.773Z,2.50
2022-12-06T00:19:24.337Z,2.95
2022-12-06T00:21:53.055Z,2.72
2022-12-06T00:24:22.985Z,3.20
2022-12-06T00:26:52.696Z,2.05
2022-12-06T00:29:26.735Z,2.45
2022-12-06T00:31:54.667Z,2.15
2022-12-06T00:34:22.963Z,3.05
2022-12-06T00:36:51.335Z,2.42
2022-12-06T00:39:20.259Z,1.98
2022-12-06T00:41:48.575Z,2.50
2022-12-06T00:44:16.642Z,3.08
2022-12-06T00:46:45.309Z,2.80
2022-12-06T00:49:20.100Z,2.20
2022-12-06T00:51:48.297Z,1.90
2022-12-06T00:54:16.978Z,2.30
2022-12-06T00:56:45.660Z,2.67
2022-12-06T00:59:14.096Z,1.92
2022-12-06T01:01:42.515Z,2.15
2022-12-06T01:04:11.300Z,2.47
2022-12-06T01:06:40.141Z,1.77
2022-12-06T01:09:12.075Z,1.95
2022-12-06T01:11:40.233Z,2.30
2022-12-06T01:14:09.617Z,2.40
2022-12-06T01:16:38.253Z,2.92
2022-12-06T01:19:10.389Z,1.65
2022-12-06T01:21:38.309Z,2.30
2022-12-06T01:24:07.281Z,2.00
2022-12-06T01:26:37.232Z,2.67
2022-12-06T01:29:08.631Z,1.98
2022-12-06T01:31:39.065Z,2.03
2022-12-06T01:34:17.009Z,1.73
2022-12-06T01:36:45.633Z,2.05
2022-12-06T01:39:14.420Z,2.53
2022-12-06T01:41:43.528Z,2.15
2022-12-06T01:44:49.838Z,1.98
2022-12-06T01:55:22.071Z,1.95
2022-12-06T01:57:53.090Z,2.50
2022-12-06T02:00:21.112Z,2.00
2022-12-06T02:02:49.207Z,2.45
2022-12-06T02:05:18.893Z,2.33
2022-12-06T02:07:47.949Z,1.92
2022-12-06T02:10:16.008Z,2.42
2022-12-06T02:12:45.289Z,3.38
2022-12-06T02:26:50.256Z,2.65
2022-12-06T02:29:54.991Z,1.75
2022-12-06T02:35:23.596Z,2.20
2022-12-06T02:38:12.896Z,2.00
2022-12-06T02:40:51.431Z,2.80
2022-12-06T02:43:29.113Z,2.08
2022-12-06T02:46:04.368Z,2.45
2022-12-06T02:48:38.856Z,1.98
2022-12-06T02:51:13.332Z,2.42
2022-12-06T02:53:47.687Z,2.78
2022-12-06T02:56:18.890Z,2.28
2022-12-06T02:58:53.740Z,2.20
2022-12-06T03:01:32.876Z,3.33
2022-12-06T03:07:19.296Z,2.35
2022-12-06T03:16:03.508Z,1.98
2022-12-06T03:21:30.403Z,4.88
2022-12-06T03:24:00.091Z,3.17
2022-12-06T03:26:35.330Z,2.33
2022-12-06T03:29:08.731Z,2.95
2022-12-06T03:31:43.411Z,1.88
2022-12-06T03:34:25.271Z,2.30
2022-12-06T03:36:57.751Z,2.38
2022-12-06T03:39:36.560Z,2.50
2022-12-06T03:42:05.990Z,2.08
2022-12-06T03:44:35.690Z,2.40
2022-12-06T03:47:10.699Z,2.15
2022-12-06T03:49:47.513Z,3.03
2022-12-06T03:52:15.817Z,1.80
2022-12-06T03:54:44.292Z,2.80
2022-12-06T03:57:15.398Z,2.45
2022-12-06T03:59:43.980Z,2.45
2022-12-06T04:02:12.933Z,2.83
2022-12-06T04:04:42.331Z,2.83
2022-12-06T04:07:12.278Z,2.28
2022-12-06T04:10:00.802Z,2.38
2022-12-06T04:12:53.550Z,1.67
2022-12-06T04:15:23.313Z,2.90
2022-12-06T04:18:13.962Z,2.60
2022-12-06T04:23:22.872Z,2.67
2022-12-06T04:25:53.693Z,2.78
2022-12-06T04:28:57.392Z,3.00
2022-12-06T04:31:49.170Z,1.45
2022-12-06T04:34:37.513Z,2.67
2022-12-06T04:39:58.856Z,1.63
2022-12-06T04:42:50.334Z,2.75
2022-12-06T04:45:23.662Z,2.85
2022-12-06T04:47:58.331Z,1.88
2022-12-06T04:50:29.371Z,2.35
2022-12-06T04:52:57.600Z,1.77
2022-12-06T04:55:27.891Z,1.83
2022-12-06T04:57:56.459Z,2.92
2022-12-06T05:00:26.363Z,2.17
2022-12-06T05:02:55.472Z,2.17
2022-12-06T05:05:26.630Z,2.97
2022-12-06T05:07:55.132Z,2.42
2022-12-06T05:10:26.253Z,2.30
2022-12-06T05:12:54.631Z,2.30
2022-12-06T05:15:29.264Z,2.30
2022-12-06T05:18:04.190Z,2.83
2022-12-06T05:20:44.413Z,2.72
2022-12-06T05:23:13.055Z,2.67
2022-12-06T05:25:41.811Z,2.92
2022-12-06T05:28:15.130Z,3.00
2022-12-06T05:30:44.261Z,2.25
2022-12-06T05:33:18.123Z,2.38
2022-12-06T05:35:49.713Z,2.33
2022-12-06T05:38:21.508Z,1.88
2022-12-06T05:40:50.125Z,2.85
2022-12-06T05:43:18.614Z,2.40
2022-12-06T05:45:57.159Z,2.00
2022-12-06T05:48:26.061Z,2.78
2022-12-06T05:50:55.092Z,2.25
2022-12-06T05:53:24.038Z,2.20
2022-12-06T05:55:55.418Z,1.60
2022-12-06T05:58:26.983Z,2.03
2022-12-06T06:00:58.329Z,2.58
2022-12-06T06:03:29.508Z,2.13
2022-12-06T06:06:00.501Z,2.42
2022-12-06T06:08:36.938Z,2.58
2022-12-06T06:11:08.152Z,2.67
2022-12-06T06:13:42.918Z,2.45
2022-12-06T06:16:17.106Z,2.40
2022-12-06T06:18:46.209Z,2.38
2022-12-06T06:21:18.050Z,2.53
2022-12-06T06:23:48.331Z,2.70
2022-12-06T06:26:19.940Z,2.25
2022-12-06T06:28:48.902Z,2.38
2022-12-06T06:31:17.770Z,1.95
2022-12-06T06:33:48.668Z,2.40
2022-12-06T06:36:20.365Z,3.00
2022-12-06T06:38:52.930Z,1.65
2022-12-06T06:43:54.479Z,1.98
2022-12-06T06:46:24.064Z,2.55
2022-12-06T06:48:57.791Z,1.88
2022-12-06T06:51:26.351Z,2.65
2022-12-06T06:54:05.299Z,2.67
2022-12-06T06:56:36.401Z,2.78
2022-12-06T06:59:04.830Z,2.15
2022-12-06T07:01:41.149Z,2.50
2022-12-06T07:04:12.040Z,1.80
2022-12-06T07:06:40.566Z,1.63
2022-12-06T07:09:08.931Z,2.72
2022-12-06T07:11:39.809Z,3.05
2022-12-06T07:14:11.426Z,2.97
2022-12-06T07:16:41.209Z,2.60
2022-12-06T07:19:10.495Z,2.63
2022-12-06T07:21:42.533Z,2.33
2022-12-06T07:24:11.104Z,2.47
2022-12-06T07:26:42.150Z,2.80
2022-12-06T08:32:24.184Z,3.42
2022-12-06T08:35:12.774Z,3.03
2022-12-06T08:37:52.555Z,2.28
2022-12-06T08:40:27.198Z,2.38
2022-12-06T08:43:05.977Z,1.67
2022-12-06T08:45:42.810Z,1.85
2022-12-06T08:48:19.216Z,2.53
2022-12-06T08:50:47.957Z,2.25
2022-12-06T08:53:19.503Z,1.70
2022-12-06T08:56:02.752Z,2.53
2022-12-06T08:58:34.154Z,2.33
2022-12-06T09:01:14.803Z,2.33
2022-12-06T09:04:19.364Z,2.35
2022-12-06T09:06:58.049Z,1.88
2022-12-06T09:09:32.041Z,2.33
2022-12-06T09:12:10.888Z,2.17
2022-12-06T09:14:43.747Z,1.85
2022-12-06T09:17:18.070Z,2.28
2022-12-06T09:19:46.368Z,1.88
2022-12-06T09:22:14.676Z,1.77
2022-12-06T09:24:43.411Z,1.85
2022-12-06T09:27:14.288Z,2.42
2022-12-06T09:29:45.148Z,2.08
2022-12-06T09:32:13.628Z,1.67
2022-12-06T09:34:42.586Z,2.13
2022-12-06T09:37:15.314Z,1.98
2022-12-06T09:39:48.813Z,2.00
2022-12-06T09:50:42.927Z,1.98
2022-12-06T09:56:11.353Z,1.60
2022-12-06T09:58:52.755Z,1.90
2022-12-06T10:01:31.396Z,1.90
2022-12-06T10:04:15.688Z,1.67
2022-12-06T10:06:49.799Z,1.67
2022-12-06T10:14:44.265Z,2.00
2022-12-06T10:26:17.423Z,1.85
2022-12-06T10:29:18.241Z,2.60
2022-12-06T10:34:56.971Z,2.08
2022-12-06T10:42:49.467Z,1.85
2022-12-06T10:46:05.758Z,2.08
2022-12-06T10:51:25.247Z,1.65
2022-12-06T10:53:56.123Z,2.10
2022-12-06T10:56:27.031Z,2.13
2022-12-06T11:01:37.931Z,2.10
2022-12-06T11:04:17.426Z,2.42
2022-12-06T11:09:21.902Z,3.22
2022-12-06T11:11:50.607Z,2.30
2022-12-06T11:14:24.265Z,2.38
2022-12-06T11:17:11.549Z,1.70
2022-12-06T11:22:34.540Z,1.60
2022-12-06T11:25:06.422Z,2.45
2022-12-06T11:27:37.064Z,1.95
2022-12-06T11:30:16.913Z,2.10
2022-12-06T11:32:48.956Z,2.45
2022-12-06T11:35:19.025Z,1.88
2022-12-06T11:37:47.026Z,2.60
2022-12-06T11:40:32.289Z,2.03
2022-12-06T11:43:01.555Z,1.92
2022-12-06T11:45:32.733Z,2.17
2022-12-06T11:48:02.849Z,1.77
2022-12-06T11:50:31.436Z,2.00
2022-12-06T11:53:03.657Z,2.50
2022-12-06T11:55:35.188Z,2.38
2022-12-06T11:58:07.593Z,1.90
2022-12-06T12:03:02.966Z,1.80
2022-12-06T12:05:34.774Z,2.38
2022-12-06T12:08:05.638Z,2.05
2022-12-06T12:10:41.884Z,1.67
2022-12-06T12:16:07.165Z,2.00
2022-12-06T12:18:38.666Z,2.25
2022-12-06T12:21:08.615Z,1.85
2022-12-06T12:23:43.967Z,2.40
2022-12-06T12:29:12.342Z,2.83
2022-12-06T12:31:53.404Z,2.25
2022-12-06T12:34:23.048Z,2.70
2022-12-06T12:36:52.375Z,1.90
2022-12-06T12:39:38.806Z,2.55
2022-12-06T12:42:26.550Z,3.03
2022-12-06T12:44:57.357Z,2.05
2022-12-06T12:47:25.320Z,2.42
2022-12-06T12:52:42.564Z,2.47
2022-12-06T12:57:52.008Z,1.90
2022-12-06T13:03:28.529Z,2.60
2022-12-06T13:05:59.223Z,2.33
2022-12-06T13:08:34.304Z,2.17
2022-12-06T13:11:06.536Z,2.40
2022-12-06T13:13:46.016Z,1.73
2022-12-06T13:16:20.785Z,1.60
2022-12-06T13:18:53.748Z,2.10
2022-12-06T13:21:28.514Z,1.65
2022-12-06T13:24:21.609Z,1.20
2022-12-06T13:26:57.884Z,1.60
2022-12-06T13:32:17.609Z,1.70
2022-12-06T13:34:54.786Z,1.98
2022-12-06T13:46:36.350Z,1.88
2022-12-06T13:49:25.677Z,2.28
2022-12-06T13:51:53.735Z,1.60
2022-12-06T13:54:29.431Z,1.83
2022-12-06T13:56:59.116Z,1.67
2022-12-06T14:02:43.722Z,1.88
2022-12-06T14:08:21.615Z,2.45
2022-12-06T14:10:50.129Z,2.20
2022-12-06T14:13:21.887Z,2.67
2022-12-06T14:15:51.925Z,2.25
2022-12-06T14:18:24.689Z,2.15
2022-12-06T14:20:55.988Z,1.70
2022-12-06T14:23:28.507Z,2.08
2022-12-06T14:26:20.751Z,2.45
2022-12-06T14:28:50.991Z,2.92
2022-12-06T14:31:23.304Z,2.40
2022-12-06T14:33:53.630Z,2.05
2022-12-06T14:36:26.963Z,2.50
2022-12-06T14:39:01.206Z,1.70
2022-12-06T14:41:53.638Z,2.33
2022-12-06T14:44:27.999Z,2.28
2022-12-06T14:46:57.515Z,2.60
2022-12-06T14:49:48.370Z,1.85
2022-12-06T14:57:56.948Z,2.05
2022-12-06T15:00:34.497Z,1.95
2022-12-06T15:09:15.691Z,1.90
2022-12-06T15:12:06.647Z,1.85
2022-12-06T15:19:54.055Z,2.08
2022-12-06T15:22:27.310Z,1.85
2022-12-06T15:25:02.786Z,2.30
2022-12-06T15:27:32.228Z,2.25
2022-12-06T15:30:01.647Z,2.63
2022-12-06T15:32:32.868Z,2.83
2022-12-06T15:35:01.265Z,2.55
2022-12-06T15:37:40.729Z,2.15
2022-12-06T15:40:16.101Z,2.00
2022-12-06T15:42:44.817Z,1.88
2022-12-06T15:45:19.441Z,2.20
2022-12-06T15:47:50.629Z,2.25
2022-12-06T15:50:19.380Z,2.25
2022-12-06T15:52:53.699Z,2.25
2022-12-06T15:55:22.111Z,1.55
2022-12-06T15:57:50.653Z,1.63
2022-12-06T16:00:22.446Z,2.20
2022-12-06T16:02:51.270Z,1.63
2022-12-06T16:05:24.359Z,1.88
2022-12-06T16:08:00.458Z,1.55
2022-12-06T16:11:02.883Z,2.08
2022-12-06T16:13:25.281Z,1.63
2022-12-06T16:15:54.547Z,1.42
2022-12-06T16:18:29.299Z,1.73
2022-12-06T16:21:10.838Z,1.85
2022-12-06T16:24:14.895Z,1.13
2022-12-06T16:26:47.490Z,1.50
2022-12-06T16:29:19.388Z,1.83
2022-12-06T16:31:59.629Z,1.52
2022-12-06T16:34:31.409Z,2.00
2022-12-06T16:37:04.324Z,2.45
2022-12-06T16:39:35.613Z,2.17
2022-12-06T16:42:36.440Z,1.42
2022-12-06T16:44:58.244Z,1.55
2022-12-06T16:49:57.407Z,1.27
2022-12-06T16:52:25.608Z,1.80
2022-12-06T16:54:56.098Z,1.50
2022-12-06T16:57:33.827Z,1.88
2022-12-06T17:00:02.347Z,0.98
2022-12-06T17:02:36.600Z,4.47
2022-12-06T17:05:07.231Z,4.38
2022-12-06T17:07:39.649Z,3.60
2022-12-06T17:10:08.960Z,3.67
2022-12-06T17:12:37.127Z,4.40
2022-12-06T17:15:08.667Z,6.32
2022-12-06T17:17:37.406Z,5.82
2022-12-06T17:20:09.382Z,6.43
2022-12-06T17:22:38.012Z,8.50
2022-12-06T17:25:07.423Z,9.07
2022-12-06T17:27:36.263Z,7.40
2022-12-06T17:30:04.963Z,6.22
2022-12-06T17:32:34.009Z,6.07
2022-12-06T17:35:02.936Z,3.33
2022-12-06T17:37:31.428Z,4.13
2022-12-06T17:40:03.113Z,3.13
2022-12-06T17:42:51.746Z,2.53
2022-12-06T17:45:24.626Z,2.28
2022-12-06T17:47:53.466Z,2.90
2022-12-06T17:50:21.733Z,3.33
2022-12-06T17:52:50.796Z,2.75
2022-12-06T17:55:20.226Z,2.72
2022-12-06T17:57:48.568Z,2.45
2022-12-06T18:00:18.014Z,3.00
2022-12-06T18:02:47.154Z,1.85
2022-12-06T18:05:15.787Z,3.60
2022-12-06T18:07:45.631Z,4.03
2022-12-06T18:10:19.123Z,2.78
2022-12-06T18:12:52.987Z,2.03
2022-12-06T18:15:42.301Z,2.13
2022-12-06T18:18:13.588Z,1.60
2022-12-06T18:20:45.327Z,1.83
2022-12-06T18:23:15.085Z,1.50
2022-12-06T18:25:44.834Z,1.33
2022-12-06T18:28:18.617Z,1.35
2022-12-06T18:30:53.995Z,1.70
2022-12-06T18:33:25.392Z,1.35
2022-12-06T18:35:58.333Z,1.52
2022-12-06T18:38:26.947Z,1.80
2022-12-06T18:41:14.308Z,1.92
2022-12-06T18:43:42.984Z,1.20
2022-12-06T18:46:23.061Z,2.22
2022-12-06T18:48:54.331Z,1.52
2022-12-06T18:51:32.471Z,2.15
2022-12-06T18:54:04.084Z,1.38
2022-12-06T18:56:35.867Z,1.55
2022-12-06T18:59:09.224Z,1.60
2022-12-06T19:01:40.413Z,1.40
2022-12-06T19:04:15.949Z,1.20
2022-12-06T19:06:49.608Z,1.80
2022-12-06T19:09:19.246Z,1.42
2022-12-06T19:11:49.987Z,1.50
2022-12-06T19:14:19.022Z,2.15
2022-12-06T19:16:53.004Z,0.90
2022-12-06T19:19:33.134Z,1.42
2022-12-06T19:22:01.787Z,1.42
2022-12-06T19:24:35.328Z,1.17
2022-12-06T19:27:09.428Z,1.00
2022-12-06T19:29:41.329Z,1.55
2022-12-06T19:32:15.191Z,1.88
2022-12-06T19:34:51.547Z,1.55
2022-12-06T19:37:22.269Z,2.03
2022-12-06T19:40:01.111Z,2.67
2022-12-06T19:42:53.087Z,2.00
2022-12-06T19:45:27.827Z,2.17
2022-12-06T19:47:59.791Z,1.45
2022-12-06T19:50:33.626Z,2.08
2022-12-06T19:53:02.572Z,1.80
2022-12-06T19:55:37.828Z,1.70
2022-12-06T19:58:12.473Z,1.58
2022-12-06T20:00:52.948Z,1.85
2022-12-06T20:03:28.608Z,1.98
2022-12-06T20:06:12.844Z,2.08
2022-12-06T20:08:48.947Z,1.52
2022-12-06T20:11:41.872Z,1.35
2022-12-06T20:14:19.009Z,1.42
2022-12-06T20:16:51.866Z,2.30
2022-12-06T20:19:25.729Z,1.13
2022-12-06T20:21:57.459Z,1.45
2022-12-06T20:24:26.574Z,1.92
2022-12-06T20:26:56.850Z,1.30
2022-12-06T20:29:34.730Z,2.00
2022-12-06T20:32:04.848Z,1.90
2022-12-06T20:34:35.370Z,1.83
2022-12-06T20:37:08.128Z,1.75
2022-12-06T20:39:40.313Z,1.60
2022-12-06T20:42:09.153Z,1.45
2022-12-06T20:44:37.425Z,2.00
2022-12-06T20:47:13.763Z,1.50
2022-12-06T20:49:44.790Z,1.75
2022-12-06T20:52:14.535Z,2.22
2022-12-06T20:54:43.377Z,2.17
2022-12-06T20:57:12.829Z,1.98
2022-12-06T20:59:48.608Z,1.35
2022-12-06T21:02:22.287Z,1.73
2022-12-06T21:04:58.091Z,1.60
2022-12-06T21:07:34.394Z,1.85
2022-12-06T21:10:07.800Z,1.83
2022-12-06T21:12:40.196Z,1.73
2022-12-06T21:15:15.665Z,2.03
2022-12-06T21:17:44.287Z,1.27
2022-12-06T21:20:17.587Z,2.42
2022-12-06T21:23:00.247Z,2.13
2022-12-06T21:25:28.950Z,2.17
2022-12-06T21:28:08.593Z,1.75
2022-12-06T21:30:40.207Z,1.48
2022-12-06T21:33:11.187Z,1.98
2022-12-06T21:35:43.038Z,1.35
2022-12-06T21:38:14.308Z,1.15
2022-12-06T21:40:48.002Z,1.20
2022-12-06T21:43:23.663Z,1.55
2022-12-06T21:45:54.667Z,2.05
2022-12-06T21:48:25.555Z,1.85
2022-12-06T21:50:56.675Z,1.88
2022-12-06T21:53:28.111Z,2.25
2022-12-06T21:56:05.051Z,1.83
2022-12-06T21:58:33.728Z,1.35
2022-12-06T22:01:08.806Z,2.10
2022-12-06T22:03:38.568Z,2.28
2022-12-06T22:06:11.408Z,2.17
2022-12-06T22:08:49.228Z,1.70
2022-12-06T22:11:20.766Z,1.20
2022-12-06T22:13:52.069Z,2.05
2022-12-06T22:16:23.499Z,1.38
2022-12-06T22:18:56.302Z,1.98
2022-12-06T22:21:34.273Z,1.92
2022-12-06T22:24:12.309Z,1.80
2022-12-06T22:26:43.268Z,2.25
2022-12-06T22:29:14.348Z,2.10
2022-12-06T22:31:51.061Z,1.25
2022-12-06T22:34:22.328Z,1.75
2022-12-06T22:36:53.208Z,1.80
2022-12-06T22:39:22.269Z,2.08
2022-12-06T22:41:53.147Z,1.52
2022-12-06T22:44:27.632Z,1.88
2022-12-06T22:46:56.096Z,1.45
2022-12-06T22:49:26.806Z,2.28
2022-12-06T22:52:00.983Z,2.47
2022-12-06T22:54:29.510Z,2.47
2022-12-06T22:56:59.383Z,2.70
2022-12-06T22:59:31.248Z,1.92
2022-12-06T23:02:06.258Z,1.45
2022-12-06T23:04:34.782Z,2.90
2022-12-06T23:07:07.986Z,1.98
2022-12-06T23:09:36.261Z,2.10
2022-12-06T23:12:04.927Z,2.83
2022-12-06T23:14:33.500Z,2.33
2022-12-06T23:17:02.170Z,2.85
2022-12-06T23:19:35.786Z,2.90
2022-12-06T23:22:04.265Z,2.88
2022-12-06T23:24:33.388Z,2.28
2022-12-06T23:27:01.872Z,3.58
2022-12-06T23:29:30.198Z,2.85
2022-12-06T23:31:58.758Z,3.15
2022-12-06T23:34:27.519Z,3.03
2022-12-06T23:36:56.188Z,2.42
2022-12-06T23:39:24.246Z,3.33
2022-12-06T23:41:52.445Z,3.05
2022-12-06T23:44:20.847Z,3.63
2022-12-06T23:46:52.142Z,3.13
2022-12-06T23:49:22.463Z,2.50
2022-12-06T23:51:51.605Z,3.60
2022-12-06T23:54:23.841Z,2.65
2022-12-06T23:56:52.287Z,2.85
2022-12-06T23:59:21.207Z,4.13
